sensor_id;sensor_type;location;lat;lon;timestamp;pressure;altitude;pressure_sealevel;temperature;humidity
72423;BME280;60413;55.658;37.498;2023-01-04T02:54:42;97990.00;;;-3.35;100.00
72423;BME280;60413;55.658;37.498;2023-01-04T03:00:18;97951.84;;;-3.84;100.00
72423;BME280;60413;55.658;37.498;2023-01-04T03:06:21;98043.63;;;-3.54;100.00
72423;BME280;60413;55.658;37.498;2023-01-04T03:11:23;98057.13;;;-3.51;100.00
72423;BME280;60413;55.658;37.498;2023-01-04T03:14:19;98061.50;;;-3.52;100.00
72423;BME280;60413;55.658;37.498;2023-01-04T03:16:47;98076.44;;;-3.47;100.00
72423;BME280;60413;55.658;37.498;2023-01-04T03:19:17;98056.56;;;-3.62;100.00
72423;BME280;60413;55.658;37.498;2023-01-04T03:22:03;98084.63;;;-3.44;100.00
72423;BME280;60413;55.658;37.498;2023-01-04T03:24:31;98087.34;;;-3.45;100.00
72423;BME280;60413;55.658;37.498;2023-01-04T03:27:18;98099.97;;;-3.50;100.00
72423;BME280;60413;55.658;37.498;2023-01-04T03:30:09;98100.47;;;-3.55;100.00
72423;BME280;60413;55.658;37.498;2023-01-04T03:33:46;98100.63;;;-3.57;100.00
72423;BME280;60413;55.658;37.498;2023-01-04T03:37:04;98125.25;;;-3.54;100.00
72423;BME280;60413;55.658;37.498;2023-01-04T03:39:45;98117.00;;;-3.49;100.00
72423;BME280;60413;55.658;37.498;2023-01-04T03:45:32;98143.56;;;-3.49;100.00
72423;BME280;60413;55.658;37.498;2023-01-04T03:48:30;98145.00;;;-3.46;100.00
72423;BME280;60413;55.658;37.498;2023-01-04T03:53:53;98150.47;;;-3.49;100.00
72423;BME280;60413;55.658;37.498;2023-01-04T03:56:21;98159.16;;;-3.42;100.00
72423;BME280;60413;55.658;37.498;2023-01-04T03:58:49;98169.03;;;-3.31;100.00
72423;BME280;60413;55.658;37.498;2023-01-04T04:01:17;98170.34;;;-3.35;100.00
72423;BME280;60413;55.658;37.498;2023-01-04T04:03:44;98177.63;;;-3.39;100.00
72423;BME280;60413;55.658;37.498;2023-01-04T04:06:28;98177.19;;;-3.42;100.00
72423;BME280;60413;55.658;37.498;2023-01-04T04:09:12;98185.38;;;-3.39;100.00
72423;BME280;60413;55.658;37.498;2023-01-04T04:11:38;98198.41;;;-3.40;100.00
72423;BME280;60413;55.658;37.498;2023-01-04T04:14:04;98190.56;;;-3.47;100.00
72423;BME280;60413;55.658;37.498;2023-01-04T04:16:30;98193.97;;;-3.55;100.00
72423;BME280;60413;55.658;37.498;2023-01-04T04:18:56;98207.81;;;-3.47;100.00
72423;BME280;60413;55.658;37.498;2023-01-04T04:21:22;98188.66;;;-3.53;100.00
72423;BME280;60413;55.658;37.498;2023-01-04T04:23:48;98177.28;;;-3.59;100.00
72423;BME280;60413;55.658;37.498;2023-01-04T04:26:14;98202.94;;;-3.42;100.00
72423;BME280;60413;55.658;37.498;2023-01-04T04:28:40;98223.38;;;-3.41;100.00
72423;BME280;60413;55.658;37.498;2023-01-04T04:31:06;98213.91;;;-3.48;100.00
72423;BME280;60413;55.658;37.498;2023-01-04T04:33:32;98208.84;;;-3.65;100.00
72423;BME280;60413;55.658;37.498;2023-01-04T04:35:58;98238.84;;;-3.41;100.00
72423;BME280;60413;55.658;37.498;2023-01-04T04:38:24;98223.75;;;-3.52;100.00
72423;BME280;60413;55.658;37.498;2023-01-04T04:40:50;98234.53;;;-3.48;100.00
72423;BME280;60413;55.658;37.498;2023-01-04T04:43:34;98259.44;;;-3.41;100.00
72423;BME280;60413;55.658;37.498;2023-01-04T04:46:00;98232.56;;;-3.46;100.00
72423;BME280;60413;55.658;37.498;2023-01-04T04:48:26;98245.03;;;-3.58;100.00
72423;BME280;60413;55.658;37.498;2023-01-04T04:50:52;98262.56;;;-3.54;100.00
72423;BME280;60413;55.658;37.498;2023-01-04T04:53:18;98281.09;;;-3.58;100.00
72423;BME280;60413;55.658;37.498;2023-01-04T04:55:44;98279.84;;;-3.62;100.00
72423;BME280;60413;55.658;37.498;2023-01-04T04:58:10;98282.72;;;-3.57;100.00
72423;BME280;60413;55.658;37.498;2023-01-04T05:00:36;98286.09;;;-3.65;100.00
72423;BME280;60413;55.658;37.498;2023-01-04T05:03:01;98288.69;;;-3.65;100.00
72423;BME280;60413;55.658;37.498;2023-01-04T05:05:27;98292.59;;;-3.69;100.00
72423;BME280;60413;55.658;37.498;2023-01-04T05:07:54;98303.38;;;-3.74;100.00
72423;BME280;60413;55.658;37.498;2023-01-04T05:10:20;98289.56;;;-3.81;100.00
72423;BME280;60413;55.658;37.498;2023-01-04T05:12:45;98327.38;;;-3.81;100.00
72423;BME280;60413;55.658;37.498;2023-01-04T05:15:33;98323.19;;;-3.82;100.00
72423;BME280;60413;55.658;37.498;2023-01-04T05:18:00;98333.97;;;-3.79;100.00
72423;BME280;60413;55.658;37.498;2023-01-04T05:20:26;98329.78;;;-3.88;100.00
72423;BME280;60413;55.658;37.498;2023-01-04T05:22:52;98343.34;;;-3.94;100.00
72423;BME280;60413;55.658;37.498;2023-01-04T05:25:18;98341.88;;;-3.88;100.00
72423;BME280;60413;55.658;37.498;2023-01-04T05:27:44;98320.50;;;-3.97;100.00
72423;BME280;60413;55.658;37.498;2023-01-04T05:30:12;98339.78;;;-3.93;100.00
72423;BME280;60413;55.658;37.498;2023-01-04T05:32:56;98347.84;;;-4.04;100.00
72423;BME280;60413;55.658;37.498;2023-01-04T05:35:22;98342.69;;;-4.04;100.00
72423;BME280;60413;55.658;37.498;2023-01-04T05:37:48;98345.09;;;-4.03;100.00
72423;BME280;60413;55.658;37.498;2023-01-04T05:40:14;98364.09;;;-3.96;100.00
72423;BME280;60413;55.658;37.498;2023-01-04T05:42:40;98380.50;;;-3.97;100.00
72423;BME280;60413;55.658;37.498;2023-01-04T05:45:06;98350.94;;;-4.17;100.00
72423;BME280;60413;55.658;37.498;2023-01-04T05:47:33;98396.09;;;-3.98;100.00
72423;BME280;60413;55.658;37.498;2023-01-04T05:49:59;98352.88;;;-4.36;100.00
72423;BME280;60413;55.658;37.498;2023-01-04T05:52:26;98396.25;;;-4.00;100.00
72423;BME280;60413;55.658;37.498;2023-01-04T05:54:52;98411.22;;;-3.95;100.00
72423;BME280;60413;55.658;37.498;2023-01-04T05:57:18;98407.69;;;-3.94;100.00
72423;BME280;60413;55.658;37.498;2023-01-04T05:59:44;98419.91;;;-3.96;100.00
72423;BME280;60413;55.658;37.498;2023-01-04T06:02:16;98356.56;;;-4.38;100.00
72423;BME280;60413;55.658;37.498;2023-01-04T06:04:42;98415.25;;;-4.01;100.00
72423;BME280;60413;55.658;37.498;2023-01-04T06:07:08;98420.41;;;-4.01;100.00
72423;BME280;60413;55.658;37.498;2023-01-04T06:09:34;98422.00;;;-4.00;100.00
72423;BME280;60413;55.658;37.498;2023-01-04T06:12:00;98415.56;;;-4.04;100.00
72423;BME280;60413;55.658;37.498;2023-01-04T06:14:26;98425.19;;;-3.98;100.00
72423;BME280;60413;55.658;37.498;2023-01-04T06:16:51;98435.66;;;-3.99;100.00
72423;BME280;60413;55.658;37.498;2023-01-04T06:19:17;98428.59;;;-4.05;100.00
72423;BME280;60413;55.658;37.498;2023-01-04T06:21:43;98431.97;;;-4.21;100.00
72423;BME280;60413;55.658;37.498;2023-01-04T06:24:10;98438.56;;;-4.27;100.00
72423;BME280;60413;55.658;37.498;2023-01-04T06:26:38;98448.06;;;-4.36;100.00
72423;BME280;60413;55.658;37.498;2023-01-04T06:29:04;98461.88;;;-4.29;100.00
72423;BME280;60413;55.658;37.498;2023-01-04T06:31:30;98463.47;;;-4.19;100.00
72423;BME280;60413;55.658;37.498;2023-01-04T06:33:56;98475.06;;;-4.23;100.00
72423;BME280;60413;55.658;37.498;2023-01-04T06:36:22;98467.81;;;-4.28;100.00
72423;BME280;60413;55.658;37.498;2023-01-04T06:38:48;98483.75;;;-4.16;100.00
72423;BME280;60413;55.658;37.498;2023-01-04T06:41:14;98485.19;;;-4.22;100.00
72423;BME280;60413;55.658;37.498;2023-01-04T06:43:40;98487.78;;;-4.22;100.00
72423;BME280;60413;55.658;37.498;2023-01-04T06:46:06;98493.56;;;-4.20;100.00
72423;BME280;60413;55.658;37.498;2023-01-04T06:48:32;98456.22;;;-4.40;100.00
72423;BME280;60413;55.658;37.498;2023-01-04T06:50:58;98490.97;;;-4.28;100.00
72423;BME280;60413;55.658;37.498;2023-01-04T06:53:24;98495.78;;;-4.41;100.00
72423;BME280;60413;55.658;37.498;2023-01-04T06:55:50;98510.13;;;-4.31;100.00
72423;BME280;60413;55.658;37.498;2023-01-04T06:58:16;98513.00;;;-4.34;100.00
72423;BME280;60413;55.658;37.498;2023-01-04T07:00:42;98507.84;;;-4.34;100.00
72423;BME280;60413;55.658;37.498;2023-01-04T07:03:26;98524.44;;;-4.20;100.00
72423;BME280;60413;55.658;37.498;2023-01-04T07:05:52;98518.50;;;-4.20;100.00
72423;BME280;60413;55.658;37.498;2023-01-04T07:08:18;98519.78;;;-4.16;100.00
72423;BME280;60413;55.658;37.498;2023-01-04T07:10:45;98526.19;;;-4.29;100.00
72423;BME280;60413;55.658;37.498;2023-01-04T07:13:11;98538.09;;;-4.19;100.00
72423;BME280;60413;55.658;37.498;2023-01-04T07:15:37;98504.50;;;-4.34;100.00
72423;BME280;60413;55.658;37.498;2023-01-04T07:18:03;98525.88;;;-4.25;100.00
72423;BME280;60413;55.658;37.498;2023-01-04T07:20:32;98542.28;;;-4.18;100.00
72423;BME280;60413;55.658;37.498;2023-01-04T07:22:58;98534.56;;;-4.26;100.00
72423;BME280;60413;55.658;37.498;2023-01-04T07:25:26;98561.13;;;-4.10;100.00
72423;BME280;60413;55.658;37.498;2023-01-04T07:28:02;98549.56;;;-4.14;100.00
72423;BME280;60413;55.658;37.498;2023-01-04T07:30:28;98548.25;;;-4.18;100.00
72423;BME280;60413;55.658;37.498;2023-01-04T07:32:54;98568.03;;;-4.18;100.00
72423;BME280;60413;55.658;37.498;2023-01-04T07:35:21;98586.41;;;-4.05;100.00
72423;BME280;60413;55.658;37.498;2023-01-04T07:37:47;98561.69;;;-4.40;100.00
72423;BME280;60413;55.658;37.498;2023-01-04T07:40:13;98568.44;;;-4.48;100.00
72423;BME280;60413;55.658;37.498;2023-01-04T07:42:39;98585.66;;;-4.40;100.00
72423;BME280;60413;55.658;37.498;2023-01-04T07:45:06;98587.88;;;-4.45;100.00
72423;BME280;60413;55.658;37.498;2023-01-04T07:47:32;98580.91;;;-4.53;100.00
72423;BME280;60413;55.658;37.498;2023-01-04T07:49:58;98594.59;;;-4.52;100.00
72423;BME280;60413;55.658;37.498;2023-01-04T07:52:25;98568.91;;;-4.44;100.00
72423;BME280;60413;55.658;37.498;2023-01-04T07:54:51;98581.28;;;-4.48;100.00
72423;BME280;60413;55.658;37.498;2023-01-04T07:57:17;98604.28;;;-4.38;100.00
72423;BME280;60413;55.658;37.498;2023-01-04T07:59:43;98610.91;;;-4.35;100.00
72423;BME280;60413;55.658;37.498;2023-01-04T08:02:10;98598.50;;;-4.40;100.00
72423;BME280;60413;55.658;37.498;2023-01-04T08:04:36;98583.31;;;-4.59;100.00
72423;BME280;60413;55.658;37.498;2023-01-04T08:07:02;98612.72;;;-4.28;100.00
72423;BME280;60413;55.658;37.498;2023-01-04T08:09:28;98614.47;;;-4.28;100.00
72423;BME280;60413;55.658;37.498;2023-01-04T08:11:54;98613.00;;;-4.39;100.00
72423;BME280;60413;55.658;37.498;2023-01-04T08:14:19;98623.66;;;-4.25;100.00
72423;BME280;60413;55.658;37.498;2023-01-04T08:16:45;98625.28;;;-4.16;100.00
72423;BME280;60413;55.658;37.498;2023-01-04T08:19:17;98634.47;;;-4.14;100.00
72423;BME280;60413;55.658;37.498;2023-01-04T08:21:44;98581.09;;;-4.46;100.00
72423;BME280;60413;55.658;37.498;2023-01-04T08:24:15;98630.72;;;-4.28;100.00
72423;BME280;60413;55.658;37.498;2023-01-04T08:26:42;98625.50;;;-4.44;100.00
72423;BME280;60413;55.658;37.498;2023-01-04T08:29:08;98629.97;;;-4.46;100.00
72423;BME280;60413;55.658;37.498;2023-01-04T08:31:34;98639.91;;;-4.51;100.00
72423;BME280;60413;55.658;37.498;2023-01-04T08:34:02;98634.94;;;-4.53;100.00
72423;BME280;60413;55.658;37.498;2023-01-04T08:36:30;98631.25;;;-4.50;100.00
72423;BME280;60413;55.658;37.498;2023-01-04T08:39:01;98632.50;;;-4.62;100.00
72423;BME280;60413;55.658;37.498;2023-01-04T08:41:32;98635.72;;;-4.60;100.00
72423;BME280;60413;55.658;37.498;2023-01-04T08:43:58;98632.78;;;-4.66;100.00
72423;BME280;60413;55.658;37.498;2023-01-04T08:46:24;98644.06;;;-4.58;100.00
72423;BME280;60413;55.658;37.498;2023-01-04T08:48:51;98652.59;;;-4.58;100.00
72423;BME280;60413;55.658;37.498;2023-01-04T08:51:17;98637.38;;;-4.77;100.00
72423;BME280;60413;55.658;37.498;2023-01-04T08:53:43;98639.69;;;-4.66;100.00
72423;BME280;60413;55.658;37.498;2023-01-04T08:59:37;98646.78;;;-4.60;100.00
72423;BME280;60413;55.658;37.498;2023-01-04T09:02:24;98647.97;;;-4.46;100.00
72423;BME280;60413;55.658;37.498;2023-01-04T09:04:50;98648.97;;;-4.47;100.00
72423;BME280;60413;55.658;37.498;2023-01-04T09:07:19;98642.19;;;-4.48;100.00
72423;BME280;60413;55.658;37.498;2023-01-04T09:09:45;98649.34;;;-4.34;100.00
72423;BME280;60413;55.658;37.498;2023-01-04T09:12:13;98636.09;;;-4.47;100.00
72423;BME280;60413;55.658;37.498;2023-01-04T09:14:40;98649.91;;;-4.48;100.00
72423;BME280;60413;55.658;37.498;2023-01-04T09:17:06;98650.38;;;-4.53;100.00
72423;BME280;60413;55.658;37.498;2023-01-04T09:19:32;98639.63;;;-4.48;100.00
72423;BME280;60413;55.658;37.498;2023-01-04T09:21:59;98620.59;;;-4.63;100.00
72423;BME280;60413;55.658;37.498;2023-01-04T09:24:25;98649.59;;;-4.45;100.00
72423;BME280;60413;55.658;37.498;2023-01-04T09:26:51;98646.94;;;-4.35;100.00
72423;BME280;60413;55.658;37.498;2023-01-04T09:29:17;98662.22;;;-4.34;100.00
72423;BME280;60413;55.658;37.498;2023-01-04T09:34:41;98652.91;;;-4.26;100.00
72423;BME280;60413;55.658;37.498;2023-01-04T09:37:07;98650.94;;;-4.33;100.00
72423;BME280;60413;55.658;37.498;2023-01-04T09:39:33;98649.00;;;-4.39;100.00
72423;BME280;60413;55.658;37.498;2023-01-04T09:42:03;98653.69;;;-4.34;100.00
72423;BME280;60413;55.658;37.498;2023-01-04T09:44:49;98643.56;;;-4.36;100.00
72423;BME280;60413;55.658;37.498;2023-01-04T09:47:26;98659.03;;;-4.28;100.00
72423;BME280;60413;55.658;37.498;2023-01-04T09:57:00;98630.69;;;-4.36;100.00
72423;BME280;60413;55.658;37.498;2023-01-04T09:59:31;98662.00;;;-4.06;100.00
72423;BME280;60413;55.658;37.498;2023-01-04T10:02:11;98646.53;;;-4.06;100.00
72423;BME280;60413;55.658;37.498;2023-01-04T10:04:49;98659.59;;;-3.99;100.00
72423;BME280;60413;55.658;37.498;2023-01-04T10:07:20;98650.13;;;-3.99;100.00
72423;BME280;60413;55.658;37.498;2023-01-04T10:10:20;98643.53;;;-3.93;100.00
72423;BME280;60413;55.658;37.498;2023-01-04T10:16:01;98641.78;;;-3.84;100.00
72423;BME280;60413;55.658;37.498;2023-01-04T10:18:40;98591.47;;;-4.30;100.00
72423;BME280;60413;55.658;37.498;2023-01-04T10:21:46;98643.34;;;-4.00;100.00
72423;BME280;60413;55.658;37.498;2023-01-04T10:34:54;98609.03;;;-4.17;100.00
72423;BME280;60413;55.658;37.498;2023-01-04T10:37:24;98645.28;;;-4.02;100.00
72423;BME280;60413;55.658;37.498;2023-01-04T10:39:54;98640.75;;;-4.08;100.00
72423;BME280;60413;55.658;37.498;2023-01-04T10:51:01;98634.50;;;-4.05;100.00
72423;BME280;60413;55.658;37.498;2023-01-04T11:01:41;98625.81;;;-4.04;100.00
72423;BME280;60413;55.658;37.498;2023-01-04T11:04:20;98590.38;;;-4.27;100.00
72423;BME280;60413;55.658;37.498;2023-01-04T11:07:51;98634.69;;;-3.99;100.00
72423;BME280;60413;55.658;37.498;2023-01-04T11:14:02;98644.66;;;-3.96;100.00
72423;BME280;60413;55.658;37.498;2023-01-04T11:16:30;98641.44;;;-3.98;100.00
72423;BME280;60413;55.658;37.498;2023-01-04T11:18:56;98639.38;;;-3.94;100.00
72423;BME280;60413;55.658;37.498;2023-01-04T11:21:27;98642.72;;;-4.02;100.00
72423;BME280;60413;55.658;37.498;2023-01-04T11:24:01;98634.50;;;-4.05;100.00
72423;BME280;60413;55.658;37.498;2023-01-04T11:26:33;98626.13;;;-4.07;100.00
72423;BME280;60413;55.658;37.498;2023-01-04T11:29:14;98652.81;;;-4.08;100.00
72423;BME280;60413;55.658;37.498;2023-01-04T11:31:54;98626.16;;;-4.42;100.00
72423;BME280;60413;55.658;37.498;2023-01-04T11:34:42;98652.22;;;-4.37;100.00
72423;BME280;60413;55.658;37.498;2023-01-04T11:41:22;98656.41;;;-4.36;100.00
72423;BME280;60413;55.658;37.498;2023-01-04T11:43:58;98664.78;;;-4.34;100.00
72423;BME280;60413;55.658;37.498;2023-01-04T11:50:51;98645.66;;;-4.31;100.00
72423;BME280;60413;55.658;37.498;2023-01-04T12:01:39;98611.38;;;-4.74;100.00
72423;BME280;60413;55.658;37.498;2023-01-04T12:04:24;98652.81;;;-4.43;100.00
72423;BME280;60413;55.658;37.498;2023-01-04T12:07:00;98666.38;;;-4.41;100.00
72423;BME280;60413;55.658;37.498;2023-01-04T12:09:30;98671.84;;;-4.36;100.00
72423;BME280;60413;55.658;37.498;2023-01-04T12:11:58;98661.03;;;-4.48;100.00
72423;BME280;60413;55.658;37.498;2023-01-04T12:14:26;98652.34;;;-4.47;100.00
72423;BME280;60413;55.658;37.498;2023-01-04T12:19:27;98663.63;;;-4.39;100.00
72423;BME280;60413;55.658;37.498;2023-01-04T12:21:58;98642.28;;;-4.32;100.00
72423;BME280;60413;55.658;37.498;2023-01-04T12:24:29;98663.69;;;-4.23;100.00
72423;BME280;60413;55.658;37.498;2023-01-04T12:26:56;98649.28;;;-4.16;100.00
72423;BME280;60413;55.658;37.498;2023-01-04T12:53:04;98660.53;;;-4.08;100.00
72423;BME280;60413;55.658;37.498;2023-01-04T12:57:56;98670.03;;;-4.09;100.00
72423;BME280;60413;55.658;37.498;2023-01-04T13:08:15;98664.00;;;-4.26;100.00
72423;BME280;60413;55.658;37.498;2023-01-04T13:10:46;98657.44;;;-4.20;100.00
72423;BME280;60413;55.658;37.498;2023-01-04T13:13:59;98670.28;;;-4.29;100.00
72423;BME280;60413;55.658;37.498;2023-01-04T13:16:40;98672.31;;;-4.40;100.00
72423;BME280;60413;55.658;37.498;2023-01-04T13:19:28;98655.69;;;-4.54;100.00
72423;BME280;60413;55.658;37.498;2023-01-04T13:21:58;98675.47;;;-4.47;100.00
72423;BME280;60413;55.658;37.498;2023-01-04T13:24:28;98650.94;;;-4.67;100.00
72423;BME280;60413;55.658;37.498;2023-01-04T13:27:03;98665.19;;;-4.47;100.00
72423;BME280;60413;55.658;37.498;2023-01-04T13:37:35;98642.00;;;-4.20;100.00
72423;BME280;60413;55.658;37.498;2023-01-04T13:51:41;98659.75;;;-4.09;100.00
72423;BME280;60413;55.658;37.498;2023-01-04T13:54:21;98646.03;;;-4.18;100.00
72423;BME280;60413;55.658;37.498;2023-01-04T13:56:47;98620.78;;;-4.22;100.00
72423;BME280;60413;55.658;37.498;2023-01-04T13:59:16;98647.34;;;-4.14;100.00
72423;BME280;60413;55.658;37.498;2023-01-04T14:01:44;98636.69;;;-4.27;100.00
72423;BME280;60413;55.658;37.498;2023-01-04T14:06:43;98647.84;;;-4.10;100.00
72423;BME280;60413;55.658;37.498;2023-01-04T14:14:33;98642.84;;;-4.12;100.00
72423;BME280;60413;55.658;37.498;2023-01-04T14:19:54;98632.50;;;-4.20;100.00
72423;BME280;60413;55.658;37.498;2023-01-04T14:22:23;98637.72;;;-4.03;100.00
72423;BME280;60413;55.658;37.498;2023-01-04T14:24:55;98585.34;;;-4.37;100.00
72423;BME280;60413;55.658;37.498;2023-01-04T14:27:36;98631.47;;;-4.01;100.00
72423;BME280;60413;55.658;37.498;2023-01-04T14:34:17;98610.88;;;-3.84;100.00
72423;BME280;60413;55.658;37.498;2023-01-04T14:36:43;98609.16;;;-3.76;100.00
72423;BME280;60413;55.658;37.498;2023-01-04T14:39:18;98604.16;;;-3.77;100.00
72423;BME280;60413;55.658;37.498;2023-01-04T14:44:19;98597.41;;;-3.70;100.00
72423;BME280;60413;55.658;37.498;2023-01-04T14:46:52;98601.75;;;-3.70;100.00
72423;BME280;60413;55.658;37.498;2023-01-04T14:49:18;98579.84;;;-3.75;100.00
72423;BME280;60413;55.658;37.498;2023-01-04T14:51:47;98602.88;;;-3.57;100.00
72423;BME280;60413;55.658;37.498;2023-01-04T14:54:15;98597.59;;;-3.47;100.00
72423;BME280;60413;55.658;37.498;2023-01-04T14:56:41;98589.69;;;-3.45;100.00
72423;BME280;60413;55.658;37.498;2023-01-04T14:59:08;98556.19;;;-3.70;100.00
72423;BME280;60413;55.658;37.498;2023-01-04T15:01:34;98588.06;;;-3.46;100.00
72423;BME280;60413;55.658;37.498;2023-01-04T15:04:05;98588.06;;;-3.46;100.00
72423;BME280;60413;55.658;37.498;2023-01-04T15:06:32;98581.16;;;-3.46;100.00
72423;BME280;60413;55.658;37.498;2023-01-04T15:08:59;98588.72;;;-3.44;100.00
72423;BME280;60413;55.658;37.498;2023-01-04T15:11:25;98574.56;;;-3.57;100.00
72423;BME280;60413;55.658;37.498;2023-01-04T15:13:51;98579.56;;;-3.39;100.00
72423;BME280;60413;55.658;37.498;2023-01-04T15:16:22;98575.03;;;-3.37;100.00
72423;BME280;60413;55.658;37.498;2023-01-04T15:18:48;98555.53;;;-3.39;100.00
72423;BME280;60413;55.658;37.498;2023-01-04T15:21:13;98569.72;;;-3.27;100.00
72423;BME280;60413;55.658;37.498;2023-01-04T15:23:40;98563.88;;;-3.12;100.00
72423;BME280;60413;55.658;37.498;2023-01-04T15:26:08;98552.00;;;-3.22;100.00
72423;BME280;60413;55.658;37.498;2023-01-04T15:28:35;98538.78;;;-3.19;100.00
72423;BME280;60413;55.658;37.498;2023-01-04T15:31:15;98551.16;;;-3.06;100.00
72423;BME280;60413;55.658;37.498;2023-01-04T15:38:32;98542.78;;;-3.08;100.00
72423;BME280;60413;55.658;37.498;2023-01-04T15:41:04;98540.53;;;-3.11;100.00
72423;BME280;60413;55.658;37.498;2023-01-04T15:43:34;98518.97;;;-3.26;100.00
72423;BME280;60413;55.658;37.498;2023-01-04T15:46:05;98528.13;;;-3.07;100.00
72423;BME280;60413;55.658;37.498;2023-01-04T15:48:33;98519.44;;;-3.14;100.00
72423;BME280;60413;55.658;37.498;2023-01-04T15:51:04;98524.25;;;-3.11;100.00
72423;BME280;60413;55.658;37.498;2023-01-04T15:53:33;98518.63;;;-3.07;100.00
72423;BME280;60413;55.658;37.498;2023-01-04T15:56:25;98493.97;;;-3.18;100.00
72423;BME280;60413;55.658;37.498;2023-01-04T15:59:03;98520.41;;;-3.15;100.00
72423;BME280;60413;55.658;37.498;2023-01-04T16:01:31;98509.44;;;-3.09;100.00
72423;BME280;60413;55.658;37.498;2023-01-04T16:03:57;98498.19;;;-3.17;100.00
72423;BME280;60413;55.658;37.498;2023-01-04T16:06:23;98495.59;;;-3.17;100.00
72423;BME280;60413;55.658;37.498;2023-01-04T16:08:54;98483.84;;;-3.19;100.00
72423;BME280;60413;55.658;37.498;2023-01-04T16:11:26;98483.34;;;-3.14;100.00
72423;BME280;60413;55.658;37.498;2023-01-04T16:13:59;98461.66;;;-3.28;100.00
72423;BME280;60413;55.658;37.498;2023-01-04T16:16:48;98417.13;;;-3.62;100.00
72423;BME280;60413;55.658;37.498;2023-01-04T16:19:17;98442.84;;;-3.37;100.00
72423;BME280;60413;55.658;37.498;2023-01-04T16:21:43;98411.31;;;-3.47;100.00
72423;BME280;60413;55.658;37.498;2023-01-04T16:24:09;98420.78;;;-3.40;100.00
72423;BME280;60413;55.658;37.498;2023-01-04T16:26:35;98420.78;;;-3.48;100.00
72423;BME280;60413;55.658;37.498;2023-01-04T16:29:03;98436.34;;;-3.25;100.00
72423;BME280;60413;55.658;37.498;2023-01-04T16:31:33;98440.03;;;-3.19;100.00
72423;BME280;60413;55.658;37.498;2023-01-04T16:34:03;98399.22;;;-3.47;100.00
72423;BME280;60413;55.658;37.498;2023-01-04T16:36:30;98384.41;;;-3.45;100.00
72423;BME280;60413;55.658;37.498;2023-01-04T16:39:00;98370.94;;;-3.63;100.00
72423;BME280;60413;55.658;37.498;2023-01-04T16:41:29;98373.50;;;-3.55;100.00
72423;BME280;60413;55.658;37.498;2023-01-04T16:44:13;98354.34;;;-3.61;100.00
72423;BME280;60413;55.658;37.498;2023-01-04T16:46:56;98369.09;;;-3.46;100.00
72423;BME280;60413;55.658;37.498;2023-01-04T16:49:28;98378.84;;;-3.25;100.00
72423;BME280;60413;55.658;37.498;2023-01-04T16:52:13;98381.72;;;-3.20;100.00
72423;BME280;60413;55.658;37.498;2023-01-04T16:55:31;98382.44;;;-3.35;100.00
72423;BME280;60413;55.658;37.498;2023-01-04T16:58:17;98369.88;;;-3.38;100.00
72423;BME280;60413;55.658;37.498;2023-01-04T17:01:39;98352.09;;;-3.56;100.00
72423;BME280;60413;55.658;37.498;2023-01-04T17:04:23;98369.72;;;-3.36;100.00
72423;BME280;60413;55.658;37.498;2023-01-04T17:06:58;98319.41;;;-3.55;100.00
72423;BME280;60413;55.658;37.498;2023-01-04T17:09:54;98351.00;;;-3.30;100.00
72423;BME280;60413;55.658;37.498;2023-01-04T17:12:37;98303.34;;;-3.65;100.00
72423;BME280;60413;55.658;37.498;2023-01-04T17:15:04;98397.47;;;-3.07;100.00
72423;BME280;60413;55.658;37.498;2023-01-04T17:17:46;98323.41;;;-3.53;100.00
72423;BME280;60413;55.658;37.498;2023-01-04T17:20:19;98386.50;;;-3.01;100.00
72423;BME280;60413;55.658;37.498;2023-01-04T17:22:45;98384.41;;;-3.05;100.00
72423;BME280;60413;55.658;37.498;2023-01-04T17:25:11;98307.31;;;-3.55;100.00
72423;BME280;60413;55.658;37.498;2023-01-04T17:27:50;98327.22;;;-3.40;100.00
72423;BME280;60413;55.658;37.498;2023-01-04T17:30:41;98312.69;;;-3.33;100.00
72423;BME280;60413;55.658;37.498;2023-01-04T17:43:00;98335.38;;;-2.97;100.00
72423;BME280;60413;55.658;37.498;2023-01-04T17:46:18;98244.56;;;-3.62;100.00
72423;BME280;60413;55.658;37.498;2023-01-04T18:00:16;98309.59;;;-2.97;100.00
72423;BME280;60413;55.658;37.498;2023-01-04T18:03:26;98226.28;;;-3.44;100.00
72423;BME280;60413;55.658;37.498;2023-01-04T18:06:06;98246.75;;;-3.42;100.00
72423;BME280;60413;55.658;37.498;2023-01-04T18:08:55;98253.59;;;-3.35;100.00
72423;BME280;60413;55.658;37.498;2023-01-04T18:11:44;98308.28;;;-2.93;100.00
72423;BME280;60413;55.658;37.498;2023-01-04T18:14:40;98315.06;;;-2.92;100.00
72423;BME280;60413;55.658;37.498;2023-01-04T18:21:56;98309.50;;;-2.81;100.00
72423;BME280;60413;55.658;37.498;2023-01-04T18:38:17;98255.53;;;-2.82;100.00
72423;BME280;60413;55.658;37.498;2023-01-04T18:41:39;98300.03;;;-2.65;100.00
72423;BME280;60413;55.658;37.498;2023-01-04T18:45:06;98211.66;;;-3.20;100.00
72423;BME280;60413;55.658;37.498;2023-01-04T18:48:24;98240.50;;;-2.78;100.00
72423;BME280;60413;55.658;37.498;2023-01-04T18:51:08;98273.81;;;-2.54;100.00
72423;BME280;60413;55.658;37.498;2023-01-04T18:53:38;98180.69;;;-2.97;100.00
72423;BME280;60413;55.658;37.498;2023-01-04T19:00:30;98249.97;;;-2.56;100.00
72423;BME280;60413;55.658;37.498;2023-01-04T19:03:25;98225.56;;;-2.68;100.00
72423;BME280;60413;55.658;37.498;2023-01-04T19:06:31;98266.56;;;-2.35;100.00
72423;BME280;60413;55.658;37.498;2023-01-04T19:09:25;98194.25;;;-2.80;100.00
72423;BME280;60413;55.658;37.498;2023-01-04T19:16:41;98184.72;;;-2.80;100.00
72423;BME280;60413;55.658;37.498;2023-01-04T19:27:12;98235.88;;;-2.30;100.00
72423;BME280;60413;55.658;37.498;2023-01-04T19:33:41;98238.44;;;-2.30;100.00
72423;BME280;60413;55.658;37.498;2023-01-04T19:37:14;98229.19;;;-2.25;100.00
72423;BME280;60413;55.658;37.498;2023-01-04T19:48:57;98172.84;;;-2.51;100.00
72423;BME280;60413;55.658;37.498;2023-01-04T19:51:30;98197.25;;;-2.38;100.00